sensor_id;sensor_type;location;lat;lon;timestamp;pressure;altitude;pressure_sealevel;temperature;humidity
44127;BME280;29786;50.798;7.302;2023-04-25T00:01:36;98590;;;6.08;100
44127;BME280;29786;50.798;7.302;2023-04-25T00:06:34;98590;;;6.06;100
44127;BME280;29786;50.798;7.302;2023-04-25T00:11:29;98590;;;5.93;100
44127;BME280;29786;50.798;7.302;2023-04-25T00:22:36;98600;;;5.78;100
44127;BME280;29786;50.798;7.302;2023-04-25T00:27:33;98590;;;5.74;100
44127;BME280;29786;50.798;7.302;2023-04-25T00:32:29;98600;;;5.68;100
44127;BME280;29786;50.798;7.302;2023-04-25T00:37:26;98590;;;5.61;100
44127;BME280;29786;50.798;7.302;2023-04-25T00:43:37;98600;;;5.49;100
44127;BME280;29786;50.798;7.302;2023-04-25T00:48:33;98600;;;5.46;100
44127;BME280;29786;50.798;7.302;2023-04-25T00:53:30;98600;;;5.39;100
44127;BME280;29786;50.798;7.302;2023-04-25T00:58:26;98600;;;5.31;100
44127;BME280;29786;50.798;7.302;2023-04-25T01:04:37;98590;;;5.19;100
44127;BME280;29786;50.798;7.302;2023-04-25T01:09:33;98590;;;5.09;100
44127;BME280;29786;50.798;7.302;2023-04-25T01:14:30;98590;;;5.02;100
44127;BME280;29786;50.798;7.302;2023-04-25T01:19:26;98600;;;4.91;100
44127;BME280;29786;50.798;7.302;2023-04-25T01:25:37;98600;;;4.9;100
44127;BME280;29786;50.798;7.302;2023-04-25T01:30:34;98590;;;4.84;100
44127;BME280;29786;50.798;7.302;2023-04-25T01:35:30;98590;;;4.67;100
44127;BME280;29786;50.798;7.302;2023-04-25T01:40:27;98590;;;4.67;100
44127;BME280;29786;50.798;7.302;2023-04-25T01:46:37;98600;;;4.6;100
44127;BME280;29786;50.798;7.302;2023-04-25T01:51:34;98610;;;4.56;100
44127;BME280;29786;50.798;7.302;2023-04-25T01:56:31;98620;;;4.58;100
44127;BME280;29786;50.798;7.302;2023-04-25T02:01:27;98620;;;4.56;100
44127;BME280;29786;50.798;7.302;2023-04-25T02:07:38;98620;;;4.6;100
44127;BME280;29786;50.798;7.302;2023-04-25T02:12:35;98620;;;4.73;100
44127;BME280;29786;50.798;7.302;2023-04-25T02:17:31;98620;;;4.86;100
44127;BME280;29786;50.798;7.302;2023-04-25T02:22:27;98630;;;4.94;100
44127;BME280;29786;50.798;7.302;2023-04-25T02:27:24;98630;;;5.02;100
44127;BME280;29786;50.798;7.302;2023-04-25T02:38:31;98630;;;5.05;100
44127;BME280;29786;50.798;7.302;2023-04-25T02:43:27;98630;;;5.08;100
44127;BME280;29786;50.798;7.302;2023-04-25T02:49:38;98630;;;5.07;100
44127;BME280;29786;50.798;7.302;2023-04-25T02:54:34;98630;;;5.03;100
44127;BME280;29786;50.798;7.302;2023-04-25T02:59:31;98630;;;4.92;100
44127;BME280;29786;50.798;7.302;2023-04-25T03:04:28;98630;;;4.75;100
44127;BME280;29786;50.798;7.302;2023-04-25T03:09:24;98630;;;4.56;100
44127;BME280;29786;50.798;7.302;2023-04-25T03:15:35;98630;;;4.48;100
44127;BME280;29786;50.798;7.302;2023-04-25T03:20:31;98600;;;4.31;100
44127;BME280;29786;50.798;7.302;2023-04-25T03:25:28;98630;;;4.39;100
44127;BME280;29786;50.798;7.302;2023-04-25T03:31:39;98630;;;4.33;100
44127;BME280;29786;50.798;7.302;2023-04-25T03:36:35;98630;;;4.27;100
44127;BME280;29786;50.798;7.302;2023-04-25T03:41:32;98610;;;4.1;100
44127;BME280;29786;50.798;7.302;2023-04-25T03:46:28;98630;;;4.34;100
44127;BME280;29786;50.798;7.302;2023-04-25T03:52:39;98640;;;4.62;100
44127;BME280;29786;50.798;7.302;2023-04-25T03:57:35;98640;;;4.69;100
44127;BME280;29786;50.798;7.302;2023-04-25T04:02:32;98620;;;4.65;100
44127;BME280;29786;50.798;7.302;2023-04-25T04:07:28;98640;;;4.84;100
44127;BME280;29786;50.798;7.302;2023-04-25T04:13:39;98640;;;4.91;100
44127;BME280;29786;50.798;7.302;2023-04-25T04:18:36;98640;;;4.83;100
44127;BME280;29786;50.798;7.302;2023-04-25T04:23:32;98650;;;4.87;100
44127;BME280;29786;50.798;7.302;2023-04-25T04:28:29;98650;;;4.94;100
44127;BME280;29786;50.798;7.302;2023-04-25T04:33:25;98650;;;5;100
44127;BME280;29786;50.798;7.302;2023-04-25T04:39:36;98660;;;5.16;100
44127;BME280;29786;50.798;7.302;2023-04-25T04:44:32;98660;;;5.12;100
44127;BME280;29786;50.798;7.302;2023-04-25T04:49:29;98670;;;5.08;100
44127;BME280;29786;50.798;7.302;2023-04-25T05:00:36;98680;;;5.12;100
44127;BME280;29786;50.798;7.302;2023-04-25T05:05:33;98690;;;5.15;100
44127;BME280;29786;50.798;7.302;2023-04-25T05:10:29;98700;;;5.16;100
44127;BME280;29786;50.798;7.302;2023-04-25T05:15:26;98700;;;5.09;100
44127;BME280;29786;50.798;7.302;2023-04-25T05:21:36;98710;;;5.06;100
44127;BME280;29786;50.798;7.302;2023-04-25T05:26:33;98720;;;5.15;100
44127;BME280;29786;50.798;7.302;2023-04-25T05:31:29;98720;;;5.27;100
44127;BME280;29786;50.798;7.302;2023-04-25T05:36:26;98720;;;5.27;100
44127;BME280;29786;50.798;7.302;2023-04-25T05:42:37;98720;;;5.46;100
44127;BME280;29786;50.798;7.302;2023-04-25T05:47:33;98720;;;5.43;100
44127;BME280;29786;50.798;7.302;2023-04-25T05:52:30;98730;;;5.57;100
44127;BME280;29786;50.798;7.302;2023-04-25T05:57:26;98730;;;5.58;100
44127;BME280;29786;50.798;7.302;2023-04-25T06:03:37;98740;;;5.55;100
44127;BME280;29786;50.798;7.302;2023-04-25T06:08:33;98740;;;5.84;100
44127;BME280;29786;50.798;7.302;2023-04-25T06:13:30;98750;;;6.07;100
44127;BME280;29786;50.798;7.302;2023-04-25T06:24:37;98760;;;6.01;100
44127;BME280;29786;50.798;7.302;2023-04-25T06:29:34;98760;;;5.84;100
44127;BME280;29786;50.798;7.302;2023-04-25T06:34:30;98760;;;5.95;100
44127;BME280;29786;50.798;7.302;2023-04-25T06:39:27;98760;;;6.04;100
44127;BME280;29786;50.798;7.302;2023-04-25T06:45:37;98760;;;6.39;100
44127;BME280;29786;50.798;7.302;2023-04-25T06:50:34;98760;;;6.84;100
44127;BME280;29786;50.798;7.302;2023-04-25T06:55:30;98760;;;7.23;100
44127;BME280;29786;50.798;7.302;2023-04-25T07:00:27;98760;;;7.21;100
44127;BME280;29786;50.798;7.302;2023-04-25T07:06:38;98770;;;7.51;100
44127;BME280;29786;50.798;7.302;2023-04-25T07:11:34;98770;;;7.74;100
44127;BME280;29786;50.798;7.302;2023-04-25T07:16:31;98770;;;8.28;100
44127;BME280;29786;50.798;7.302;2023-04-25T07:21:27;98780;;;8.6;100
44127;BME280;29786;50.798;7.302;2023-04-25T07:27:38;98780;;;8.68;100
44127;BME280;29786;50.798;7.302;2023-04-25T07:32:34;98780;;;9.21;100
44127;BME280;29786;50.798;7.302;2023-04-25T07:37:31;98780;;;9.1;100
44127;BME280;29786;50.798;7.302;2023-04-25T07:42:28;98790;;;8.5;100
44127;BME280;29786;50.798;7.302;2023-04-25T07:48:38;98790;;;8.85;100
44127;BME280;29786;50.798;7.302;2023-04-25T07:53:35;98800;;;8.85;100
44127;BME280;29786;50.798;7.302;2023-04-25T07:58:31;98810;;;7.76;100
44127;BME280;29786;50.798;7.302;2023-04-25T08:03:28;98800;;;7.27;100
44127;BME280;29786;50.798;7.302;2023-04-25T08:09:39;98830;;;6.93;100
44127;BME280;29786;50.798;7.302;2023-04-25T08:14:35;98840;;;6.92;100
44127;BME280;29786;50.798;7.302;2023-04-25T08:19:32;98830;;;7.15;100
44127;BME280;29786;50.798;7.302;2023-04-25T08:24:28;98850;;;7.58;100
44127;BME280;29786;50.798;7.302;2023-04-25T08:29:25;98860;;;7.5;100
44127;BME280;29786;50.798;7.302;2023-04-25T08:35:35;98870;;;7.87;100
44127;BME280;29786;50.798;7.302;2023-04-25T08:40:32;98850;;;8.29;97.58
44127;BME280;29786;50.798;7.302;2023-04-25T08:45:28;98890;;;8.57;92.8
44127;BME280;29786;50.798;7.302;2023-04-25T08:51:44;98890;;;9.02;90.05
44127;BME280;29786;50.798;7.302;2023-04-25T08:56:36;98890;;;8.5;85.12
44127;BME280;29786;50.798;7.302;2023-04-25T09:01:32;98900;;;8.46;87.51
44127;BME280;29786;50.798;7.302;2023-04-25T09:06:29;98910;;;8.09;81.32
44127;BME280;29786;50.798;7.302;2023-04-25T09:11:25;98920;;;8.38;82.34
44127;BME280;29786;50.798;7.302;2023-04-25T09:17:36;98930;;;8.58;82.16
44127;BME280;29786;50.798;7.302;2023-04-25T09:22:32;98920;;;8.22;83.88
44127;BME280;29786;50.798;7.302;2023-04-25T09:27:29;98930;;;8.16;81.43
44127;BME280;29786;50.798;7.302;2023-04-25T09:38:44;98950;;;7.73;85.82
44127;BME280;29786;50.798;7.302;2023-04-25T09:43:33;98960;;;7.86;86.65
44127;BME280;29786;50.798;7.302;2023-04-25T09:48:29;98970;;;7.66;85.02
44127;BME280;29786;50.798;7.302;2023-04-25T09:53:26;98970;;;7.62;85.92
44127;BME280;29786;50.798;7.302;2023-04-25T09:59:38;98970;;;8.08;84.16
44127;BME280;29786;50.798;7.302;2023-04-25T10:04:33;98970;;;8;78.89
44127;BME280;29786;50.798;7.302;2023-04-25T10:09:29;98980;;;8.38;81.89
44127;BME280;29786;50.798;7.302;2023-04-25T10:14:26;98990;;;9.01;71.69
44127;BME280;29786;50.798;7.302;2023-04-25T10:20:37;98980;;;9.72;68.24
44127;BME280;29786;50.798;7.302;2023-04-25T10:25:33;98990;;;9.83;63.67
44127;BME280;29786;50.798;7.302;2023-04-25T10:30:30;99000;;;9.24;65.6
44127;BME280;29786;50.798;7.302;2023-04-25T10:35:27;99000;;;9.05;63.5
44127;BME280;29786;50.798;7.302;2023-04-25T10:42:09;99000;;;9.3;68.58
44127;BME280;29786;50.798;7.302;2023-04-25T10:46:33;99000;;;8.85;67.08
44127;BME280;29786;50.798;7.302;2023-04-25T10:51:31;99010;;;7.87;66.51
44127;BME280;29786;50.798;7.302;2023-04-25T11:02:40;99030;;;7.95;73.89
44127;BME280;29786;50.798;7.302;2023-04-25T11:07:37;99020;;;8.13;72.24
44127;BME280;29786;50.798;7.302;2023-04-25T11:12:30;99020;;;7.97;73.09
44127;BME280;29786;50.798;7.302;2023-04-25T11:17:27;99020;;;8.76;72.14
44127;BME280;29786;50.798;7.302;2023-04-25T11:23:37;99010;;;9.34;66.3
44127;BME280;29786;50.798;7.302;2023-04-25T11:28:34;99000;;;9.81;61.86
44127;BME280;29786;50.798;7.302;2023-04-25T11:33:30;99010;;;10.53;58.26
44127;BME280;29786;50.798;7.302;2023-04-25T11:38:27;99000;;;10.82;56.7
44127;BME280;29786;50.798;7.302;2023-04-25T11:44:38;99020;;;9.1;59.83
44127;BME280;29786;50.798;7.302;2023-04-25T11:49:35;99020;;;8.82;63.58
44127;BME280;29786;50.798;7.302;2023-04-25T11:54:39;99030;;;8.53;62.66
44127;BME280;29786;50.798;7.302;2023-04-25T11:59:35;99020;;;8.38;61.39
44127;BME280;29786;50.798;7.302;2023-04-25T12:04:32;99010;;;8.72;61.47
44127;BME280;29786;50.798;7.302;2023-04-25T12:09:29;99030;;;9.06;61.7
44127;BME280;29786;50.798;7.302;2023-04-25T12:14:26;99040;;;9.34;59.1
44127;BME280;29786;50.798;7.302;2023-04-25T12:20:36;99040;;;10.16;57.63
44127;BME280;29786;50.798;7.302;2023-04-25T12:30:29;99030;;;10.71;54.31
44127;BME280;29786;50.798;7.302;2023-04-25T12:35:25;99040;;;11.4;52.54
44127;BME280;29786;50.798;7.302;2023-04-25T12:41:36;99030;;;13.83;46.11
44127;BME280;29786;50.798;7.302;2023-04-25T12:46:32;99010;;;14.92;44.71
44127;BME280;29786;50.798;7.302;2023-04-25T12:51:29;99010;;;14.97;43.65
44127;BME280;29786;50.798;7.302;2023-04-25T12:56:26;99010;;;15.01;41.75
44127;BME280;29786;50.798;7.302;2023-04-25T13:02:36;99020;;;15.62;39.16
44127;BME280;29786;50.798;7.302;2023-04-25T13:07:33;99020;;;14.24;42.18
44127;BME280;29786;50.798;7.302;2023-04-25T13:12:30;99020;;;13.42;42.42
44127;BME280;29786;50.798;7.302;2023-04-25T13:17:26;99040;;;11.32;44.54
44127;BME280;29786;50.798;7.302;2023-04-25T13:23:37;99030;;;10.64;47.57
44127;BME280;29786;50.798;7.302;2023-04-25T13:28:33;99030;;;10.85;47.26
44127;BME280;29786;50.798;7.302;2023-04-25T13:33:29;99050;;;11.72;43.47
44127;BME280;29786;50.798;7.302;2023-04-25T13:38:26;99040;;;13.49;43.23
44127;BME280;29786;50.798;7.302;2023-04-25T13:44:37;99050;;;10.62;46.75
44127;BME280;29786;50.798;7.302;2023-04-25T13:49:33;99060;;;9.64;49.03
44127;BME280;29786;50.798;7.302;2023-04-25T13:54:30;99060;;;9.68;51.27
44127;BME280;29786;50.798;7.302;2023-04-25T13:59:26;99080;;;9.66;51.16
44127;BME280;29786;50.798;7.302;2023-04-25T14:05:37;99070;;;9.56;51.83
44127;BME280;29786;50.798;7.302;2023-04-25T14:10:34;99070;;;9.46;50.11
44127;BME280;29786;50.798;7.302;2023-04-25T14:15:31;99070;;;9.77;48.5
44127;BME280;29786;50.798;7.302;2023-04-25T14:20:27;99070;;;10.55;48.09
44127;BME280;29786;50.798;7.302;2023-04-25T14:26:37;99060;;;11.27;47.19
44127;BME280;29786;50.798;7.302;2023-04-25T14:31:34;99060;;;15.72;40
44127;BME280;29786;50.798;7.302;2023-04-25T14:36:30;99060;;;16.58;36.31
44127;BME280;29786;50.798;7.302;2023-04-25T14:41:27;99060;;;12.28;45.59
44127;BME280;29786;50.798;7.302;2023-04-25T14:47:38;99060;;;15.38;45.14
44127;BME280;29786;50.798;7.302;2023-04-25T14:52:34;99060;;;14.97;43.87
44127;BME280;29786;50.798;7.302;2023-04-25T14:57:31;99060;;;17.75;39.67
44127;BME280;29786;50.798;7.302;2023-04-25T15:02:27;99050;;;22.77;32.54
44127;BME280;29786;50.798;7.302;2023-04-25T15:08:38;99050;;;18.79;31.79
44127;BME280;29786;50.798;7.302;2023-04-25T15:13:34;99070;;;12.45;42.46
44127;BME280;29786;50.798;7.302;2023-04-25T15:18:31;99060;;;11.54;44.98
44127;BME280;29786;50.798;7.302;2023-04-25T15:23:27;99080;;;10.58;46.83
44127;BME280;29786;50.798;7.302;2023-04-25T15:29:38;99090;;;9.93;51.69
44127;BME280;29786;50.798;7.302;2023-04-25T15:34:35;99070;;;11.21;48.04
44127;BME280;29786;50.798;7.302;2023-04-25T15:39:31;99080;;;17.45;37.03
44127;BME280;29786;50.798;7.302;2023-04-25T15:44:28;99090;;;17.51;34.26
44127;BME280;29786;50.798;7.302;2023-04-25T15:50:38;99090;;;13.2;42.95
44127;BME280;29786;50.798;7.302;2023-04-25T15:55:35;99090;;;16.12;39
44127;BME280;29786;50.798;7.302;2023-04-25T16:00:31;99070;;;16.59;34.78
44127;BME280;29786;50.798;7.302;2023-04-25T16:05:28;99100;;;14;39.08
44127;BME280;29786;50.798;7.302;2023-04-25T16:10:24;99100;;;16.69;34.82
44127;BME280;29786;50.798;7.302;2023-04-25T16:16:35;99090;;;17.35;34.47
44127;BME280;29786;50.798;7.302;2023-04-25T16:21:32;99060;;;18.2;34.88
44127;BME280;29786;50.798;7.302;2023-04-25T16:26:28;99080;;;18.29;32.73
44127;BME280;29786;50.798;7.302;2023-04-25T16:31:25;99100;;;14.85;37.51
44127;BME280;29786;50.798;7.302;2023-04-25T16:37:35;99100;;;11.96;42.65
44127;BME280;29786;50.798;7.302;2023-04-25T16:42:32;99090;;;11.21;45.3
44127;BME280;29786;50.798;7.302;2023-04-25T16:47:28;99110;;;10.84;49.11
44127;BME280;29786;50.798;7.302;2023-04-25T16:52:25;99110;;;11.02;50.94
44127;BME280;29786;50.798;7.302;2023-04-25T16:58:36;99110;;;11.44;50.24
44127;BME280;29786;50.798;7.302;2023-04-25T17:08:29;99110;;;10.58;50.75
44127;BME280;29786;50.798;7.302;2023-04-25T17:13:25;99120;;;12.32;48.05
44127;BME280;29786;50.798;7.302;2023-04-25T17:19:36;99120;;;14.68;40.43
44127;BME280;29786;50.798;7.302;2023-04-25T17:24:32;99120;;;10.34;49.11
44127;BME280;29786;50.798;7.302;2023-04-25T17:29:29;99120;;;9.95;50.93
44127;BME280;29786;50.798;7.302;2023-04-25T17:40:36;99150;;;8.72;55.97
44127;BME280;29786;50.798;7.302;2023-04-25T17:45:33;99150;;;8.72;55.42
44127;BME280;29786;50.798;7.302;2023-04-25T17:50:29;99160;;;8.66;56.47
44127;BME280;29786;50.798;7.302;2023-04-25T17:55:26;99160;;;9.35;56.75
44127;BME280;29786;50.798;7.302;2023-04-25T18:01:36;99160;;;10.83;53.76
44127;BME280;29786;50.798;7.302;2023-04-25T18:06:33;99160;;;11.16;54.45
44127;BME280;29786;50.798;7.302;2023-04-25T18:11:29;99170;;;10.32;56.44
44127;BME280;29786;50.798;7.302;2023-04-25T18:16:26;99180;;;10.06;58.5
44127;BME280;29786;50.798;7.302;2023-04-25T18:22:37;99180;;;9.14;63.04
44127;BME280;29786;50.798;7.302;2023-04-25T18:27:33;99190;;;9;64.25
44127;BME280;29786;50.798;7.302;2023-04-25T18:32:30;99200;;;8.6;68.37
44127;BME280;29786;50.798;7.302;2023-04-25T18:37:26;99210;;;8.17;76.71
44127;BME280;29786;50.798;7.302;2023-04-25T18:43:37;99210;;;7.99;78.73
44127;BME280;29786;50.798;7.302;2023-04-25T18:48:33;99210;;;7.77;80.49
44127;BME280;29786;50.798;7.302;2023-04-25T18:53:30;99220;;;7.58;84.04
44127;BME280;29786;50.798;7.302;2023-04-25T18:58:26;99220;;;7.36;87.44
44127;BME280;29786;50.798;7.302;2023-04-25T19:04:37;99230;;;7.21;89.52
44127;BME280;29786;50.798;7.302;2023-04-25T19:09:34;99240;;;7;92.02
44127;BME280;29786;50.798;7.302;2023-04-25T19:14:31;99240;;;6.85;91.91
44127;BME280;29786;50.798;7.302;2023-04-25T19:19:27;99250;;;6.74;92.78
44127;BME280;29786;50.798;7.302;2023-04-25T19:25:37;99260;;;6.59;94.63
44127;BME280;29786;50.798;7.302;2023-04-25T19:30:34;99260;;;6.65;88.36
44127;BME280;29786;50.798;7.302;2023-04-25T19:35:30;99260;;;6.56;85.78
44127;BME280;29786;50.798;7.302;2023-04-25T19:40:27;99270;;;6.42;87.74
44127;BME280;29786;50.798;7.302;2023-04-25T19:46:38;99270;;;6.3;86.77
44127;BME280;29786;50.798;7.302;2023-04-25T19:51:35;99270;;;6.19;87.56
44127;BME280;29786;50.798;7.302;2023-04-25T19:56:31;99270;;;6.09;88
44127;BME280;29786;50.798;7.302;2023-04-25T20:01:27;99280;;;5.98;89.74
44127;BME280;29786;50.798;7.302;2023-04-25T20:07:38;99280;;;5.78;90.48
44127;BME280;29786;50.798;7.302;2023-04-25T20:12:35;99280;;;5.79;88.66
44127;BME280;29786;50.798;7.302;2023-04-25T20:17:31;99290;;;5.62;90.93
44127;BME280;29786;50.798;7.302;2023-04-25T20:22:28;99290;;;5.78;88.9
44127;BME280;29786;50.798;7.302;2023-04-25T20:28:38;99300;;;5.61;92.34
44127;BME280;29786;50.798;7.302;2023-04-25T20:33:35;99300;;;5.47;94.36
44127;BME280;29786;50.798;7.302;2023-04-25T20:38:31;99290;;;5.36;95.15
44127;BME280;29786;50.798;7.302;2023-04-25T20:43:28;99320;;;5.46;94.76
44127;BME280;29786;50.798;7.302;2023-04-25T20:49:39;99320;;;5.35;96.38
44127;BME280;29786;50.798;7.302;2023-04-25T20:54:35;99320;;;5.15;100
44127;BME280;29786;50.798;7.302;2023-04-25T20:59:32;99300;;;5.06;100
44127;BME280;29786;50.798;7.302;2023-04-25T21:04:28;99310;;;5.09;100
44127;BME280;29786;50.798;7.302;2023-04-25T21:09:25;99310;;;4.96;100
44127;BME280;29786;50.798;7.302;2023-04-25T21:15:35;99320;;;5.03;100
44127;BME280;29786;50.798;7.302;2023-04-25T21:20:32;99310;;;4.82;100
44127;BME280;29786;50.798;7.302;2023-04-25T21:25:28;99330;;;5.02;100
44127;BME280;29786;50.798;7.302;2023-04-25T21:31:39;99330;;;5.02;100
44127;BME280;29786;50.798;7.302;2023-04-25T21:36:36;99330;;;5.07;100
44127;BME280;29786;50.798;7.302;2023-04-25T21:46:29;99340;;;4.76;100
44127;BME280;29786;50.798;7.302;2023-04-25T21:51:25;99340;;;4.81;100
44127;BME280;29786;50.798;7.302;2023-04-25T21:57:36;99350;;;4.89;100
44127;BME280;29786;50.798;7.302;2023-04-25T22:02:32;99360;;;4.82;100
44127;BME280;29786;50.798;7.302;2023-04-25T22:07:29;99360;;;4.73;100
44127;BME280;29786;50.798;7.302;2023-04-25T22:18:37;99370;;;4.76;100
44127;BME280;29786;50.798;7.302;2023-04-25T22:23:33;99360;;;4.96;100
44127;BME280;29786;50.798;7.302;2023-04-25T22:28:29;99360;;;4.98;100
44127;BME280;29786;50.798;7.302;2023-04-25T22:33:26;99370;;;5.02;100
44127;BME280;29786;50.798;7.302;2023-04-25T22:39:36;99380;;;5;100
44127;BME280;29786;50.798;7.302;2023-04-25T22:44:33;99390;;;5.04;100
44127;BME280;29786;50.798;7.302;2023-04-25T22:49:29;99390;;;5.13;100
44127;BME280;29786;50.798;7.302;2023-04-25T22:54:26;99390;;;5;100
44127;BME280;29786;50.798;7.302;2023-04-25T23:00:37;99400;;;4.89;100
44127;BME280;29786;50.798;7.302;2023-04-25T23:05:33;99410;;;4.89;100
44127;BME280;29786;50.798;7.302;2023-04-25T23:10:30;99410;;;4.78;100
44127;BME280;29786;50.798;7.302;2023-04-25T23:15:26;99410;;;4.6;100
44127;BME280;29786;50.798;7.302;2023-04-25T23:21:37;99400;;;4.37;100
44127;BME280;29786;50.798;7.302;2023-04-25T23:26:33;99400;;;4.27;100
44127;BME280;29786;50.798;7.302;2023-04-25T23:31:30;99410;;;4.19;100
44127;BME280;29786;50.798;7.302;2023-04-25T23:36:26;99410;;;4.07;100
44127;BME280;29786;50.798;7.302;2023-04-25T23:42:38;99410;;;4.01;100
44127;BME280;29786;50.798;7.302;2023-04-25T23:47:34;99410;;;4.03;100
44127;BME280;29786;50.798;7.302;2023-04-25T23:52:30;99410;;;3.92;100
44127;BME280;29786;50.798;7.302;2023-04-25T23:57:27;99420;;;3.68;100
